sensor_id;sensor_type;location;lat;lon;timestamp;pressure;altitude;pressure_sealevel;temperature;humidity
3150;BME280;32503;47.748;8.960;2024-02-26T00:00:23;94992.81;;;7.97;57.78
3150;BME280;32503;47.748;8.960;2024-02-26T00:02:50;94996.28;;;8.01;57.40
3150;BME280;32503;47.748;8.960;2024-02-26T00:05:17;94974.72;;;7.90;57.75
3150;BME280;32503;47.748;8.960;2024-02-26T00:07:44;94994.75;;;8.00;57.69
3150;BME280;32503;47.748;8.960;2024-02-26T00:10:11;94993.19;;;8.03;57.42
3150;BME280;32503;47.748;8.960;2024-02-26T00:12:38;94992.06;;;7.96;57.78
3150;BME280;32503;47.748;8.960;2024-02-26T00:15:08;94991.28;;;8.00;57.68
3150;BME280;32503;47.748;8.960;2024-02-26T00:17:35;94984.34;;;7.95;57.68
3150;BME280;32503;47.748;8.960;2024-02-26T00:20:03;94976.28;;;7.98;57.41
3150;BME280;32503;47.748;8.960;2024-02-26T00:22:34;94974.38;;;8.06;57.13
3150;BME280;32503;47.748;8.960;2024-02-26T00:25:01;94970.91;;;8.06;57.49
3150;BME280;32503;47.748;8.960;2024-02-26T00:27:28;94980.53;;;8.07;57.03
3150;BME280;32503;47.748;8.960;2024-02-26T00:29:55;94962.47;;;7.96;56.76
3150;BME280;32503;47.748;8.960;2024-02-26T00:32:23;94986.69;;;8.04;56.68
3150;BME280;32503;47.748;8.960;2024-02-26T00:34:50;94979.75;;;8.06;56.74
3150;BME280;32503;47.748;8.960;2024-02-26T00:37:18;94975.91;;;8.07;56.30
3150;BME280;32503;47.748;8.960;2024-02-26T00:39:45;94979.00;;;8.09;56.09
3150;BME280;32503;47.748;8.960;2024-02-26T00:42:13;94980.53;;;8.07;56.44
3150;BME280;32503;47.748;8.960;2024-02-26T00:44:40;94987.81;;;8.10;56.36
3150;BME280;32503;47.748;8.960;2024-02-26T00:47:07;94986.69;;;8.18;56.72
3150;BME280;32503;47.748;8.960;2024-02-26T00:49:35;94979.00;;;8.20;56.28
3150;BME280;32503;47.748;8.960;2024-02-26T00:52:03;94988.63;;;8.21;55.81
3150;BME280;32503;47.748;8.960;2024-02-26T00:54:30;94993.63;;;8.15;55.58
3150;BME280;32503;47.748;8.960;2024-02-26T00:56:57;94988.63;;;8.14;55.99
3150;BME280;32503;47.748;8.960;2024-02-26T00:59:24;94978.22;;;8.16;55.41
3150;BME280;32503;47.748;8.960;2024-02-26T01:01:51;94985.13;;;8.13;54.84
3150;BME280;32503;47.748;8.960;2024-02-26T01:04:18;94981.69;;;8.13;55.08
3150;BME280;32503;47.748;8.960;2024-02-26T01:06:46;94976.69;;;8.15;55.62
3150;BME280;32503;47.748;8.960;2024-02-26T01:09:13;94979.00;;;8.16;55.25
3150;BME280;32503;47.748;8.960;2024-02-26T01:11:41;94964.00;;;8.19;54.88
3150;BME280;32503;47.748;8.960;2024-02-26T01:14:08;94969.41;;;8.19;55.19
3150;BME280;32503;47.748;8.960;2024-02-26T01:16:35;94979.38;;;8.19;55.50
3150;BME280;32503;47.748;8.960;2024-02-26T01:19:02;94973.22;;;8.18;56.08
3150;BME280;32503;47.748;8.960;2024-02-26T01:21:29;94967.09;;;8.14;56.07
3150;BME280;32503;47.748;8.960;2024-02-26T01:23:58;94970.91;;;8.16;56.04
3150;BME280;32503;47.748;8.960;2024-02-26T01:26:25;94972.47;;;8.14;56.46
3150;BME280;32503;47.748;8.960;2024-02-26T01:28:52;94988.63;;;8.14;56.87
3150;BME280;32503;47.748;8.960;2024-02-26T01:31:20;94987.06;;;8.16;56.71
3150;BME280;32503;47.748;8.960;2024-02-26T01:33:47;94987.81;;;8.13;56.22
3150;BME280;32503;47.748;8.960;2024-02-26T01:36:14;94993.63;;;8.15;56.08
3150;BME280;32503;47.748;8.960;2024-02-26T01:38:41;94997.06;;;8.20;56.35
3150;BME280;32503;47.748;8.960;2024-02-26T01:41:10;94985.94;;;8.21;56.03
3150;BME280;32503;47.748;8.960;2024-02-26T01:43:37;94972.09;;;8.19;55.77
3150;BME280;32503;47.748;8.960;2024-02-26T01:46:04;94983.22;;;8.14;55.07
3150;BME280;32503;47.748;8.960;2024-02-26T01:48:31;94983.22;;;8.07;55.12
3150;BME280;32503;47.748;8.960;2024-02-26T01:50:58;94985.13;;;8.03;54.93
3150;BME280;32503;47.748;8.960;2024-02-26T01:53:26;94986.31;;;8.05;54.60
3150;BME280;32503;47.748;8.960;2024-02-26T01:55:53;94980.91;;;8.12;54.39
3150;BME280;32503;47.748;8.960;2024-02-26T01:58:21;94985.94;;;8.14;53.97
3150;BME280;32503;47.748;8.960;2024-02-26T02:00:48;94977.84;;;8.14;53.52
3150;BME280;32503;47.748;8.960;2024-02-26T02:03:16;94982.47;;;8.17;53.74
3150;BME280;32503;47.748;8.960;2024-02-26T02:05:43;94988.63;;;8.18;54.43
3150;BME280;32503;47.748;8.960;2024-02-26T02:08:11;94987.84;;;8.17;54.39
3150;BME280;32503;47.748;8.960;2024-02-26T02:10:38;94977.47;;;8.19;54.27
3150;BME280;32503;47.748;8.960;2024-02-26T02:13:06;94985.16;;;8.17;54.09
3150;BME280;32503;47.748;8.960;2024-02-26T02:15:34;94968.59;;;8.04;54.50
3150;BME280;32503;47.748;8.960;2024-02-26T02:18:01;94990.13;;;8.15;54.32
3150;BME280;32503;47.748;8.960;2024-02-26T02:20:34;94980.53;;;8.18;54.44
3150;BME280;32503;47.748;8.960;2024-02-26T02:23:01;94981.31;;;8.18;54.47
3150;BME280;32503;47.748;8.960;2024-02-26T02:25:28;94985.94;;;8.21;54.20
3150;BME280;32503;47.748;8.960;2024-02-26T02:27:56;94985.16;;;8.21;54.08
3150;BME280;32503;47.748;8.960;2024-02-26T02:30:27;94997.81;;;8.16;53.68
3150;BME280;32503;47.748;8.960;2024-02-26T02:32:55;94908.59;;;7.60;53.72
3150;BME280;32503;47.748;8.960;2024-02-26T02:35:23;94998.63;;;8.17;54.30
3150;BME280;32503;47.748;8.960;2024-02-26T02:37:52;95012.47;;;8.15;54.19
3150;BME280;32503;47.748;8.960;2024-02-26T02:40:19;95001.69;;;8.19;54.71
3150;BME280;32503;47.748;8.960;2024-02-26T02:42:46;94996.31;;;8.19;54.88
3150;BME280;32503;47.748;8.960;2024-02-26T02:45:13;94994.75;;;8.18;55.08
3150;BME280;32503;47.748;8.960;2024-02-26T02:47:40;94997.44;;;8.18;55.11
3150;BME280;32503;47.748;8.960;2024-02-26T02:50:08;95000.53;;;8.24;54.64
3150;BME280;32503;47.748;8.960;2024-02-26T02:52:36;94995.94;;;8.24;54.39
3150;BME280;32503;47.748;8.960;2024-02-26T02:55:04;95004.38;;;8.23;54.35
3150;BME280;32503;47.748;8.960;2024-02-26T02:57:32;95009.38;;;8.24;54.26
3150;BME280;32503;47.748;8.960;2024-02-26T03:00:00;95007.47;;;8.25;54.77
3150;BME280;32503;47.748;8.960;2024-02-26T03:02:29;95012.47;;;8.26;54.69
3150;BME280;32503;47.748;8.960;2024-02-26T03:04:56;95000.16;;;8.25;54.65
3150;BME280;32503;47.748;8.960;2024-02-26T03:07:23;95006.28;;;8.22;54.87
3150;BME280;32503;47.748;8.960;2024-02-26T03:09:50;95008.59;;;8.24;55.39
3150;BME280;32503;47.748;8.960;2024-02-26T03:12:18;94992.84;;;8.22;55.60
3150;BME280;32503;47.748;8.960;2024-02-26T03:14:45;94998.22;;;8.22;55.48
3150;BME280;32503;47.748;8.960;2024-02-26T03:17:13;94990.94;;;8.23;55.87
3150;BME280;32503;47.748;8.960;2024-02-26T03:19:41;94990.94;;;8.26;55.76
3150;BME280;32503;47.748;8.960;2024-02-26T03:22:08;94979.78;;;8.24;55.53
3150;BME280;32503;47.748;8.960;2024-02-26T03:24:35;94997.06;;;8.16;56.27
3150;BME280;32503;47.748;8.960;2024-02-26T03:27:02;94990.13;;;8.15;56.11
3150;BME280;32503;47.748;8.960;2024-02-26T03:29:32;94984.75;;;8.15;57.02
3150;BME280;32503;47.748;8.960;2024-02-26T03:31:59;94961.31;;;8.12;56.88
3150;BME280;32503;47.748;8.960;2024-02-26T03:34:26;94936.31;;;8.11;57.28
3150;BME280;32503;47.748;8.960;2024-02-26T03:36:53;94931.72;;;8.08;56.80
3150;BME280;32503;47.748;8.960;2024-02-26T03:39:20;94917.84;;;8.03;56.84
3150;BME280;32503;47.748;8.960;2024-02-26T03:41:48;94921.72;;;8.02;56.69
3150;BME280;32503;47.748;8.960;2024-02-26T03:44:15;94859.44;;;7.67;55.94
3150;BME280;32503;47.748;8.960;2024-02-26T03:46:43;94906.34;;;7.84;55.84
3150;BME280;32503;47.748;8.960;2024-02-26T03:49:10;94927.41;;;7.46;56.13
3150;BME280;32503;47.748;8.960;2024-02-26T03:51:39;94917.06;;;7.55;56.09
3150;BME280;32503;47.748;8.960;2024-02-26T03:54:06;94897.47;;;7.66;55.56
3150;BME280;32503;47.748;8.960;2024-02-26T03:56:33;94897.09;;;7.74;55.85
3150;BME280;32503;47.748;8.960;2024-02-26T03:59:00;94882.50;;;7.79;55.41
3150;BME280;32503;47.748;8.960;2024-02-26T04:01:28;94881.38;;;7.80;55.81
3150;BME280;32503;47.748;8.960;2024-02-26T04:03:56;94905.16;;;7.82;55.71
3150;BME280;32503;47.748;8.960;2024-02-26T04:06:23;94910.97;;;7.80;55.63
3150;BME280;32503;47.748;8.960;2024-02-26T04:08:51;94870.19;;;7.49;55.79
3150;BME280;32503;47.748;8.960;2024-02-26T04:11:18;94912.09;;;7.86;55.44
3150;BME280;32503;47.748;8.960;2024-02-26T04:13:46;94920.56;;;7.88;56.08
3150;BME280;32503;47.748;8.960;2024-02-26T04:16:15;94920.16;;;7.83;56.46
3150;BME280;32503;47.748;8.960;2024-02-26T04:18:42;94920.53;;;7.81;56.83
3150;BME280;32503;47.748;8.960;2024-02-26T04:21:11;94920.53;;;7.85;55.94
3150;BME280;32503;47.748;8.960;2024-02-26T04:23:38;94935.16;;;7.87;55.75
3150;BME280;32503;47.748;8.960;2024-02-26T04:26:05;94935.94;;;7.91;56.29
3150;BME280;32503;47.748;8.960;2024-02-26T04:28:32;94941.69;;;7.93;55.57
3150;BME280;32503;47.748;8.960;2024-02-26T04:30:59;94954.00;;;7.91;56.26
3150;BME280;32503;47.748;8.960;2024-02-26T04:33:26;94964.75;;;7.87;56.03
3150;BME280;32503;47.748;8.960;2024-02-26T04:35:53;94971.28;;;7.83;56.62
3150;BME280;32503;47.748;8.960;2024-02-26T04:38:21;94977.03;;;7.81;56.28
3150;BME280;32503;47.748;8.960;2024-02-26T04:40:49;94977.41;;;7.76;56.44
3150;BME280;32503;47.748;8.960;2024-02-26T04:43:16;94993.16;;;7.81;56.38
3150;BME280;32503;47.748;8.960;2024-02-26T04:45:43;94997.78;;;7.81;55.86
3150;BME280;32503;47.748;8.960;2024-02-26T04:48:11;95003.19;;;7.84;56.00
3150;BME280;32503;47.748;8.960;2024-02-26T04:50:38;95005.13;;;7.87;56.14
3150;BME280;32503;47.748;8.960;2024-02-26T04:53:05;95017.00;;;7.83;55.76
3150;BME280;32503;47.748;8.960;2024-02-26T04:55:33;95017.75;;;7.83;55.48
3150;BME280;32503;47.748;8.960;2024-02-26T04:58:00;95013.94;;;7.84;55.75
3150;BME280;32503;47.748;8.960;2024-02-26T05:00:27;95023.53;;;7.85;55.21
3150;BME280;32503;47.748;8.960;2024-02-26T05:02:54;95020.84;;;7.85;55.21
3150;BME280;32503;47.748;8.960;2024-02-26T05:05:22;95032.00;;;7.87;55.32
3150;BME280;32503;47.748;8.960;2024-02-26T05:07:49;95034.28;;;7.85;54.98
3150;BME280;32503;47.748;8.960;2024-02-26T05:10:16;95041.22;;;7.83;54.63
3150;BME280;32503;47.748;8.960;2024-02-26T05:12:45;95036.22;;;7.81;54.76
3150;BME280;32503;47.748;8.960;2024-02-26T05:15:12;95032.38;;;7.82;54.40
3150;BME280;32503;47.748;8.960;2024-02-26T05:17:44;95012.38;;;7.76;55.29
3150;BME280;32503;47.748;8.960;2024-02-26T05:20:11;95021.63;;;7.82;55.16
3150;BME280;32503;47.748;8.960;2024-02-26T05:22:38;95018.94;;;7.82;55.67
3150;BME280;32503;47.748;8.960;2024-02-26T05:25:06;95027.75;;;7.79;56.02
3150;BME280;32503;47.748;8.960;2024-02-26T05:27:33;95050.84;;;7.84;56.69
3150;BME280;32503;47.748;8.960;2024-02-26T05:30:02;95042.75;;;7.80;56.49
3150;BME280;32503;47.748;8.960;2024-02-26T05:32:29;95035.06;;;7.75;56.31
3150;BME280;32503;47.748;8.960;2024-02-26T05:34:56;95018.91;;;7.75;55.71
3150;BME280;32503;47.748;8.960;2024-02-26T05:37:23;95027.38;;;7.77;55.76
3150;BME280;32503;47.748;8.960;2024-02-26T05:39:50;95018.91;;;7.75;55.67
3150;BME280;32503;47.748;8.960;2024-02-26T05:42:17;94980.81;;;7.55;55.49
3150;BME280;32503;47.748;8.960;2024-02-26T05:44:44;94995.09;;;7.77;55.57
3150;BME280;32503;47.748;8.960;2024-02-26T05:47:13;95001.25;;;7.81;55.71
3150;BME280;32503;47.748;8.960;2024-02-26T05:49:40;95021.63;;;7.82;56.41
3150;BME280;32503;47.748;8.960;2024-02-26T05:52:07;95031.59;;;7.85;56.12
3150;BME280;32503;47.748;8.960;2024-02-26T05:54:34;95037.78;;;7.89;55.85
3150;BME280;32503;47.748;8.960;2024-02-26T05:57:02;95034.72;;;7.87;55.03
3150;BME280;32503;47.748;8.960;2024-02-26T05:59:29;95035.47;;;7.91;55.42
3150;BME280;32503;47.748;8.960;2024-02-26T06:01:56;95045.47;;;7.94;54.82
3150;BME280;32503;47.748;8.960;2024-02-26T06:04:24;95042.41;;;7.96;55.38
3150;BME280;32503;47.748;8.960;2024-02-26T06:06:51;95035.09;;;8.00;55.22
3150;BME280;32503;47.748;8.960;2024-02-26T06:09:18;95030.47;;;7.97;55.04
3150;BME280;32503;47.748;8.960;2024-02-26T06:11:45;95027.78;;;7.90;54.79
3150;BME280;32503;47.748;8.960;2024-02-26T06:14:12;95023.94;;;7.87;55.04
3150;BME280;32503;47.748;8.960;2024-02-26T06:16:43;95043.53;;;7.91;54.39
3150;BME280;32503;47.748;8.960;2024-02-26T06:19:10;95046.63;;;7.93;54.46
3150;BME280;32503;47.748;8.960;2024-02-26T06:21:39;95036.63;;;8.01;54.44
3150;BME280;32503;47.748;8.960;2024-02-26T06:24:06;95040.88;;;7.98;54.78
3150;BME280;32503;47.748;8.960;2024-02-26T06:26:33;95044.31;;;8.03;55.25
3150;BME280;32503;47.748;8.960;2024-02-26T06:29:00;95053.97;;;8.07;55.28
3150;BME280;32503;47.748;8.960;2024-02-26T06:31:27;95058.56;;;8.07;55.63
3150;BME280;32503;47.748;8.960;2024-02-26T06:33:55;95068.97;;;8.15;55.46
3150;BME280;32503;47.748;8.960;2024-02-26T06:36:22;95081.28;;;8.24;55.48
3150;BME280;32503;47.748;8.960;2024-02-26T06:38:50;95088.97;;;8.25;54.73
3150;BME280;32503;47.748;8.960;2024-02-26T06:41:19;95072.81;;;8.11;54.06
3150;BME280;32503;47.748;8.960;2024-02-26T06:43:46;95093.97;;;8.27;54.12
3150;BME280;32503;47.748;8.960;2024-02-26T06:46:14;95074.00;;;8.31;54.38
3150;BME280;32503;47.748;8.960;2024-02-26T06:48:41;95067.44;;;8.36;54.11
3150;BME280;32503;47.748;8.960;2024-02-26T06:51:08;95065.94;;;8.39;54.13
3150;BME280;32503;47.748;8.960;2024-02-26T06:53:35;95070.97;;;8.44;54.13
3150;BME280;32503;47.748;8.960;2024-02-26T06:56:04;95080.94;;;8.50;53.91
3150;BME280;32503;47.748;8.960;2024-02-26T06:58:31;95072.50;;;8.66;53.91
3150;BME280;32503;47.748;8.960;2024-02-26T07:00:58;95060.91;;;9.16;53.77
3150;BME280;32503;47.748;8.960;2024-02-26T07:03:25;95061.69;;;10.12;51.88
3150;BME280;32503;47.748;8.960;2024-02-26T07:05:53;95045.66;;;11.33;50.07
3150;BME280;32503;47.748;8.960;2024-02-26T07:08:20;95048.69;;;12.31;47.81
3150;BME280;32503;47.748;8.960;2024-02-26T07:10:47;95039.75;;;12.85;45.51
3150;BME280;32503;47.748;8.960;2024-02-26T07:13:15;95036.34;;;12.81;43.97
3150;BME280;32503;47.748;8.960;2024-02-26T07:15:42;95047.88;;;12.62;43.46
3150;BME280;32503;47.748;8.960;2024-02-26T07:18:09;95052.69;;;11.96;43.91
3150;BME280;32503;47.748;8.960;2024-02-26T07:20:37;95053.53;;;11.86;44.08
3150;BME280;32503;47.748;8.960;2024-02-26T07:23:04;95055.69;;;11.36;44.81
3150;BME280;32503;47.748;8.960;2024-02-26T07:25:32;95067.34;;;11.30;45.05
3150;BME280;32503;47.748;8.960;2024-02-26T07:27:59;95060.34;;;11.32;46.58
3150;BME280;32503;47.748;8.960;2024-02-26T07:30:27;95011.97;;;11.04;46.66
3150;BME280;32503;47.748;8.960;2024-02-26T07:32:54;95058.88;;;11.28;47.06
3150;BME280;32503;47.748;8.960;2024-02-26T07:35:22;95066.63;;;11.22;46.71
3150;BME280;32503;47.748;8.960;2024-02-26T07:37:49;95077.13;;;11.16;47.29
3150;BME280;32503;47.748;8.960;2024-02-26T07:40:16;95072.69;;;10.95;47.29
3150;BME280;32503;47.748;8.960;2024-02-26T07:42:44;95068.59;;;10.80;47.22
3150;BME280;32503;47.748;8.960;2024-02-26T07:45:11;95074.09;;;10.62;47.08
3150;BME280;32503;47.748;8.960;2024-02-26T07:47:42;95086.53;;;10.52;47.54
3150;BME280;32503;47.748;8.960;2024-02-26T07:50:10;95097.41;;;10.41;48.00
3150;BME280;32503;47.748;8.960;2024-02-26T07:52:37;95084.34;;;10.33;48.63
3150;BME280;32503;47.748;8.960;2024-02-26T07:55:06;95090.91;;;10.28;49.42
3150;BME280;32503;47.748;8.960;2024-02-26T07:57:33;95082.91;;;10.10;49.85
3150;BME280;32503;47.748;8.960;2024-02-26T08:00:00;95089.50;;;10.02;50.28
3150;BME280;32503;47.748;8.960;2024-02-26T08:02:28;95090.28;;;10.02;49.05
3150;BME280;32503;47.748;8.960;2024-02-26T08:04:56;95082.91;;;10.10;49.48
3150;BME280;32503;47.748;8.960;2024-02-26T08:07:23;95075.13;;;10.19;48.59
3150;BME280;32503;47.748;8.960;2024-02-26T08:09:50;95075.00;;;10.44;48.18
3150;BME280;32503;47.748;8.960;2024-02-26T08:12:18;95072.19;;;10.62;48.92
3150;BME280;32503;47.748;8.960;2024-02-26T08:14:45;95088.63;;;10.82;48.43
3150;BME280;32503;47.748;8.960;2024-02-26T08:17:12;95087.66;;;11.07;47.52
3150;BME280;32503;47.748;8.960;2024-02-26T08:19:39;95082.75;;;11.36;47.21
3150;BME280;32503;47.748;8.960;2024-02-26T08:22:07;95087.84;;;11.65;46.67
3150;BME280;32503;47.748;8.960;2024-02-26T08:24:36;95071.50;;;12.07;45.92
3150;BME280;32503;47.748;8.960;2024-02-26T08:27:03;95078.59;;;12.24;44.69
3150;BME280;32503;47.748;8.960;2024-02-26T08:29:30;95093.28;;;12.27;44.01
3150;BME280;32503;47.748;8.960;2024-02-26T08:31:57;95086.66;;;12.59;44.28
3150;BME280;32503;47.748;8.960;2024-02-26T08:34:25;95086.91;;;13.39;43.24
3150;BME280;32503;47.748;8.960;2024-02-26T08:36:52;95087.41;;;14.14;41.49
3150;BME280;32503;47.748;8.960;2024-02-26T08:39:20;95093.03;;;14.23;39.84
3150;BME280;32503;47.748;8.960;2024-02-26T08:41:47;95088.66;;;14.46;39.79
3150;BME280;32503;47.748;8.960;2024-02-26T08:44:14;95083.25;;;14.62;40.01
3150;BME280;32503;47.748;8.960;2024-02-26T08:46:41;95092.22;;;14.79;39.86
3150;BME280;32503;47.748;8.960;2024-02-26T08:49:09;95102.47;;;15.21;39.94
3150;BME280;32503;47.748;8.960;2024-02-26T08:51:40;95102.13;;;15.64;38.13
3150;BME280;32503;47.748;8.960;2024-02-26T08:54:07;95105.75;;;15.90;38.00
3150;BME280;32503;47.748;8.960;2024-02-26T08:56:36;95101.19;;;16.00;37.24
3150;BME280;32503;47.748;8.960;2024-02-26T08:59:03;95102.50;;;16.08;37.52
3150;BME280;32503;47.748;8.960;2024-02-26T09:01:31;95096.84;;;16.16;37.13
3150;BME280;32503;47.748;8.960;2024-02-26T09:03:58;95096.53;;;16.26;36.79
3150;BME280;32503;47.748;8.960;2024-02-26T09:06:25;95103.53;;;16.53;36.44
3150;BME280;32503;47.748;8.960;2024-02-26T09:08:52;95106.06;;;16.60;36.39
3150;BME280;32503;47.748;8.960;2024-02-26T09:11:19;95089.69;;;16.60;36.16
3150;BME280;32503;47.748;8.960;2024-02-26T09:13:48;95095.50;;;16.88;35.27
3150;BME280;32503;47.748;8.960;2024-02-26T09:16:15;95101.75;;;17.23;35.90
3150;BME280;32503;47.748;8.960;2024-02-26T09:18:42;95104.19;;;17.56;34.05
3150;BME280;32503;47.748;8.960;2024-02-26T09:21:09;95111.59;;;17.91;34.11
3150;BME280;32503;47.748;8.960;2024-02-26T09:23:36;95119.78;;;18.35;33.18
3150;BME280;32503;47.748;8.960;2024-02-26T09:26:05;95099.09;;;18.65;32.30
3150;BME280;32503;47.748;8.960;2024-02-26T09:28:33;95110.47;;;18.86;31.75
3150;BME280;32503;47.748;8.960;2024-02-26T09:31:04;95110.19;;;19.02;31.67
3150;BME280;32503;47.748;8.960;2024-02-26T09:33:32;95099.00;;;19.19;31.87
3150;BME280;32503;47.748;8.960;2024-02-26T09:35:59;95089.69;;;18.98;30.53
3150;BME280;32503;47.748;8.960;2024-02-26T09:38:27;95103.16;;;18.83;31.44
3150;BME280;32503;47.748;8.960;2024-02-26T09:40:56;95111.69;;;18.85;31.92
3150;BME280;32503;47.748;8.960;2024-02-26T09:43:23;95111.47;;;18.16;31.44
3150;BME280;32503;47.748;8.960;2024-02-26T09:45:50;95111.88;;;18.06;32.72
3150;BME280;32503;47.748;8.960;2024-02-26T09:48:20;95107.22;;;17.93;32.67
3150;BME280;32503;47.748;8.960;2024-02-26T09:50:49;95110.47;;;17.66;32.90
3150;BME280;32503;47.748;8.960;2024-02-26T09:53:17;95099.84;;;16.98;33.11
3150;BME280;32503;47.748;8.960;2024-02-26T09:55:45;95092.75;;;16.37;34.20
3150;BME280;32503;47.748;8.960;2024-02-26T09:58:12;95098.28;;;15.62;35.46
3150;BME280;32503;47.748;8.960;2024-02-26T10:00:50;95095.63;;;15.45;35.48
3150;BME280;32503;47.748;8.960;2024-02-26T10:03:21;95097.16;;;15.30;36.18
3150;BME280;32503;47.748;8.960;2024-02-26T10:05:50;95094.53;;;15.26;36.53
3150;BME280;32503;47.748;8.960;2024-02-26T10:08:19;95094.81;;;15.15;36.57
3150;BME280;32503;47.748;8.960;2024-02-26T10:10:48;95096.34;;;14.84;37.24
3150;BME280;32503;47.748;8.960;2024-02-26T10:13:15;95093.31;;;14.45;37.98
3150;BME280;32503;47.748;8.960;2024-02-26T10:15:42;95095.34;;;14.41;38.36
3150;BME280;32503;47.748;8.960;2024-02-26T10:18:09;95084.91;;;14.39;38.54
3150;BME280;32503;47.748;8.960;2024-02-26T10:20:38;95094.53;;;14.24;39.00
3150;BME280;32503;47.748;8.960;2024-02-26T10:23:05;95091.97;;;14.17;38.56
3150;BME280;32503;47.748;8.960;2024-02-26T10:25:32;95096.38;;;14.11;38.86
3150;BME280;32503;47.748;8.960;2024-02-26T10:28:01;95096.13;;;13.85;39.22
3150;BME280;32503;47.748;8.960;2024-02-26T10:30:29;95120.41;;;13.52;40.13
3150;BME280;32503;47.748;8.960;2024-02-26T10:32:56;95109.16;;;13.06;40.74
3150;BME280;32503;47.748;8.960;2024-02-26T10:35:23;95121.81;;;12.89;41.39
3150;BME280;32503;47.748;8.960;2024-02-26T10:37:53;95126.22;;;12.52;42.11
3150;BME280;32503;47.748;8.960;2024-02-26T10:40:21;95127.59;;;12.06;42.36
3150;BME280;32503;47.748;8.960;2024-02-26T10:42:48;95126.69;;;12.17;42.95
3150;BME280;32503;47.748;8.960;2024-02-26T10:45:15;95131.50;;;12.05;43.52
3150;BME280;32503;47.748;8.960;2024-02-26T10:47:42;95134.97;;;12.06;44.04
3150;BME280;32503;47.748;8.960;2024-02-26T10:50:10;95135.22;;;12.15;43.27
3150;BME280;32503;47.748;8.960;2024-02-26T10:52:40;95142.91;;;12.20;43.25
3150;BME280;32503;47.748;8.960;2024-02-26T10:55:15;95126.09;;;12.05;43.12
3150;BME280;32503;47.748;8.960;2024-02-26T10:57:45;95137.59;;;12.13;43.95
3150;BME280;32503;47.748;8.960;2024-02-26T11:00:15;95135.19;;;12.19;44.11
3150;BME280;32503;47.748;8.960;2024-02-26T11:02:44;95129.25;;;12.00;44.67
3150;BME280;32503;47.748;8.960;2024-02-26T11:05:12;95150.72;;;12.14;44.49
3150;BME280;32503;47.748;8.960;2024-02-26T11:07:41;95146.19;;;12.04;44.59
3150;BME280;32503;47.748;8.960;2024-02-26T11:10:11;95145.41;;;12.07;44.64
3150;BME280;32503;47.748;8.960;2024-02-26T11:12:40;95152.06;;;11.99;43.98
3150;BME280;32503;47.748;8.960;2024-02-26T11:15:09;95161.69;;;12.04;44.36
3150;BME280;32503;47.748;8.960;2024-02-26T11:17:38;95160.06;;;12.10;43.55
3150;BME280;32503;47.748;8.960;2024-02-26T11:20:09;95158.41;;;12.20;43.95
3150;BME280;32503;47.748;8.960;2024-02-26T11:22:38;95161.44;;;12.25;43.19
3150;BME280;32503;47.748;8.960;2024-02-26T11:25:07;95161.38;;;12.29;43.15
3150;BME280;32503;47.748;8.960;2024-02-26T11:27:41;95159.66;;;12.11;43.35
3150;BME280;32503;47.748;8.960;2024-02-26T11:30:11;95155.13;;;12.01;43.75
3150;BME280;32503;47.748;8.960;2024-02-26T11:32:39;95176.25;;;12.13;43.67
3150;BME280;32503;47.748;8.960;2024-02-26T11:35:08;95168.13;;;12.13;43.67
3150;BME280;32503;47.748;8.960;2024-02-26T11:37:36;95165.75;;;12.19;43.16
3150;BME280;32503;47.748;8.960;2024-02-26T11:40:04;95165.06;;;12.11;43.24
3150;BME280;32503;47.748;8.960;2024-02-26T11:42:44;95158.41;;;12.20;43.52
3150;BME280;32503;47.748;8.960;2024-02-26T11:45:47;95157.31;;;12.44;42.87
3150;BME280;32503;47.748;8.960;2024-02-26T11:48:16;95156.38;;;12.55;42.26
3150;BME280;32503;47.748;8.960;2024-02-26T11:50:48;95146.22;;;12.62;42.04
3150;BME280;32503;47.748;8.960;2024-02-26T11:53:24;95147.91;;;12.80;42.21
3150;BME280;32503;47.748;8.960;2024-02-26T11:56:24;95151.88;;;12.99;42.23
3150;BME280;32503;47.748;8.960;2024-02-26T11:59:01;95143.28;;;13.04;42.17
3150;BME280;32503;47.748;8.960;2024-02-26T12:01:39;95141.69;;;13.06;42.08
3150;BME280;32503;47.748;8.960;2024-02-26T12:04:07;95139.81;;;13.03;42.54
3150;BME280;32503;47.748;8.960;2024-02-26T12:06:51;95136.84;;;13.18;42.76
3150;BME280;32503;47.748;8.960;2024-02-26T12:09:32;95145.72;;;13.45;42.80
3150;BME280;32503;47.748;8.960;2024-02-26T12:12:01;95153.13;;;13.65;42.68
3150;BME280;32503;47.748;8.960;2024-02-26T12:14:37;95153.69;;;13.76;42.33
3150;BME280;32503;47.748;8.960;2024-02-26T12:17:05;95154.22;;;13.91;42.06
3150;BME280;32503;47.748;8.960;2024-02-26T12:19:35;95152.38;;;14.04;42.00
3150;BME280;32503;47.748;8.960;2024-02-26T12:22:03;95153.25;;;14.01;40.80
3150;BME280;32503;47.748;8.960;2024-02-26T12:24:30;95149.81;;;13.97;40.92
3150;BME280;32503;47.748;8.960;2024-02-26T12:26:57;95153.59;;;14.03;41.15
3150;BME280;32503;47.748;8.960;2024-02-26T12:29:24;95160.34;;;13.95;40.96
3150;BME280;32503;47.748;8.960;2024-02-26T12:31:53;95162.72;;;13.93;40.50
3150;BME280;32503;47.748;8.960;2024-02-26T12:34:20;95165.06;;;13.91;40.36
3150;BME280;32503;47.748;8.960;2024-02-26T12:36:48;95160.53;;;13.41;40.30
3150;BME280;32503;47.748;8.960;2024-02-26T12:39:15;95160.44;;;12.97;41.59
3150;BME280;32503;47.748;8.960;2024-02-26T12:41:42;95164.97;;;13.04;41.64
3150;BME280;32503;47.748;8.960;2024-02-26T12:44:15;95158.03;;;13.03;41.88
3150;BME280;32503;47.748;8.960;2024-02-26T12:46:42;95152.38;;;13.17;41.70
3150;BME280;32503;47.748;8.960;2024-02-26T12:49:15;95150.59;;;13.34;41.42
3150;BME280;32503;47.748;8.960;2024-02-26T12:51:44;95168.81;;;13.57;41.61
3150;BME280;32503;47.748;8.960;2024-02-26T12:54:12;95160.81;;;13.70;41.83
3150;BME280;32503;47.748;8.960;2024-02-26T12:56:39;95157.63;;;13.95;41.54
3150;BME280;32503;47.748;8.960;2024-02-26T12:59:07;95155.19;;;14.21;41.32
3150;BME280;32503;47.748;8.960;2024-02-26T13:01:35;95153.97;;;14.42;40.87
3150;BME280;32503;47.748;8.960;2024-02-26T13:04:03;95158.22;;;14.63;40.55
3150;BME280;32503;47.748;8.960;2024-02-26T13:06:33;95161.66;;;14.84;40.17
3150;BME280;32503;47.748;8.960;2024-02-26T13:09:01;95155.94;;;14.94;40.07
3150;BME280;32503;47.748;8.960;2024-02-26T13:11:29;95156.31;;;15.13;40.13
3150;BME280;32503;47.748;8.960;2024-02-26T13:13:56;95151.78;;;15.23;39.88
3150;BME280;32503;47.748;8.960;2024-02-26T13:16:25;95148.41;;;15.19;39.31
3150;BME280;32503;47.748;8.960;2024-02-26T13:18:52;95143.72;;;15.03;39.47
3150;BME280;32503;47.748;8.960;2024-02-26T13:21:19;95149.91;;;15.03;39.99